createdAt,value
2023-05-05T00:01:04.413Z,18.81
2023-05-05T00:02:03.987Z,18.75
2023-05-05T00:03:03.791Z,18.75
2023-05-05T00:04:04.517Z,19.00
2023-05-05T00:06:03.610Z,18.81
2023-05-05T00:07:04.243Z,18.56
2023-05-05T00:08:03.769Z,18.38
2023-05-05T00:09:03.868Z,18.50
2023-05-05T00:10:04.254Z,18.56
2023-05-05T00:11:03.920Z,18.69
2023-05-05T00:12:03.848Z,18.69
2023-05-05T00:13:03.951Z,18.62
2023-05-05T00:14:03.782Z,18.50
2023-05-05T00:15:04.252Z,18.44
2023-05-05T00:16:04.328Z,18.31
2023-05-05T00:17:03.980Z,18.25
2023-05-05T00:18:03.668Z,18.12
2023-05-05T00:20:04.114Z,17.94
2023-05-05T00:21:03.603Z,17.94
2023-05-05T00:22:03.933Z,17.69
2023-05-05T00:23:04.029Z,17.69
2023-05-05T00:24:03.940Z,17.75
2023-05-05T00:25:03.545Z,18.19
2023-05-05T00:26:03.794Z,18.12
2023-05-05T00:27:03.550Z,18.19
2023-05-05T00:28:04.160Z,18.12
2023-05-05T00:31:04.171Z,18.38
2023-05-05T00:32:03.880Z,18.44
2023-05-05T00:33:04.569Z,18.25
2023-05-05T00:34:04.352Z,18.19
2023-05-05T00:35:03.935Z,18.31
2023-05-05T00:36:03.694Z,18.25
2023-05-05T00:37:04.350Z,18.19
2023-05-05T00:38:03.935Z,17.88
2023-05-05T00:39:04.020Z,18.00
2023-05-05T00:41:03.455Z,17.94
2023-05-05T00:42:04.021Z,17.88
2023-05-05T00:44:04.336Z,17.81
2023-05-05T00:45:04.367Z,17.88
2023-05-05T00:46:03.989Z,17.75
2023-05-05T00:47:03.611Z,17.75
2023-05-05T00:48:03.660Z,17.75
2023-05-05T00:51:04.091Z,17.50
2023-05-05T00:53:05.158Z,17.62
2023-05-05T00:54:03.841Z,17.62
2023-05-05T00:55:03.768Z,17.69
2023-05-05T00:57:03.555Z,17.75
2023-05-05T00:58:03.969Z,18.00
2023-05-05T00:59:03.616Z,18.25
2023-05-05T01:00:03.700Z,18.25
2023-05-05T01:01:04.479Z,18.00
2023-05-05T01:03:03.991Z,18.31
2023-05-05T01:04:03.784Z,18.38
2023-05-05T01:05:03.616Z,18.31
2023-05-05T01:07:04.421Z,18.25
2023-05-05T01:08:04.510Z,18.31
2023-05-05T01:09:04.019Z,18.19
2023-05-05T01:10:15.576Z,18.00
2023-05-05T01:11:04.433Z,18.06
2023-05-05T01:12:04.005Z,17.88
2023-05-05T01:13:04.047Z,17.88
2023-05-05T01:14:03.766Z,17.94
2023-05-05T01:15:03.529Z,17.94
2023-05-05T01:16:03.556Z,18.00
2023-05-05T01:17:03.623Z,18.06
2023-05-05T01:18:04.387Z,17.81
2023-05-05T01:19:04.092Z,17.81
2023-05-05T01:20:04.093Z,17.62
2023-05-05T01:21:03.856Z,17.62
2023-05-05T01:22:03.766Z,17.62
2023-05-05T01:24:04.168Z,17.38
2023-05-05T01:26:03.872Z,17.56
2023-05-05T01:27:04.429Z,17.62
2023-05-05T01:29:04.008Z,17.62
2023-05-05T01:30:03.687Z,17.62
2023-05-05T01:31:04.169Z,17.62
2023-05-05T01:32:04.065Z,17.69
2023-05-05T01:33:03.765Z,17.56
2023-05-05T01:35:04.511Z,17.44
2023-05-05T01:36:04.249Z,17.56
2023-05-05T01:38:03.708Z,17.25
2023-05-05T01:39:04.408Z,17.31
2023-05-05T01:40:04.097Z,17.44
2023-05-05T01:42:04.237Z,17.50
2023-05-05T01:43:04.177Z,17.62
2023-05-05T01:44:04.171Z,17.75
2023-05-05T01:45:04.349Z,18.00
2023-05-05T01:47:03.862Z,18.25
2023-05-05T01:48:03.536Z,18.25
2023-05-05T01:49:03.616Z,18.38
2023-05-05T01:50:04.090Z,18.38
2023-05-05T01:51:03.926Z,18.25
2023-05-05T01:52:04.410Z,18.12
2023-05-05T01:53:04.016Z,18.19
2023-05-05T01:55:04.080Z,17.94
2023-05-05T01:57:04.342Z,17.88
2023-05-05T01:58:04.101Z,18.00
2023-05-05T01:59:04.083Z,17.88
2023-05-05T02:00:03.599Z,17.88
2023-05-05T02:01:04.288Z,17.75
2023-05-05T02:02:03.948Z,17.62
2023-05-05T02:03:04.105Z,17.50
2023-05-05T02:04:03.705Z,17.56
2023-05-05T02:05:04.166Z,17.69
2023-05-05T02:07:03.785Z,17.56
2023-05-05T02:09:03.769Z,17.56
2023-05-05T02:10:03.679Z,17.69
2023-05-05T02:11:04.417Z,17.50
2023-05-05T02:13:04.185Z,17.12
2023-05-05T02:14:03.988Z,17.06
2023-05-05T02:15:04.417Z,16.88
2023-05-05T02:17:03.521Z,16.88
2023-05-05T02:18:04.285Z,16.69
2023-05-05T02:19:03.694Z,16.81
2023-05-05T02:20:04.183Z,16.75
2023-05-05T02:21:04.273Z,16.69
2023-05-05T02:22:04.919Z,16.62
2023-05-05T02:24:04.249Z,16.62
2023-05-05T02:25:04.248Z,16.69
2023-05-05T02:26:03.779Z,16.62
2023-05-05T02:27:04.421Z,16.56
2023-05-05T02:29:04.493Z,16.62
2023-05-05T02:30:04.010Z,16.50
2023-05-05T02:31:04.006Z,16.38
2023-05-05T02:32:03.548Z,16.44
2023-05-05T02:33:04.059Z,16.38
2023-05-05T02:34:03.690Z,16.56
2023-05-05T02:35:03.708Z,16.62
2023-05-05T02:36:04.175Z,16.81
2023-05-05T02:37:04.411Z,16.88
2023-05-05T02:39:04.175Z,17.00
2023-05-05T02:40:03.800Z,16.88
2023-05-05T02:41:04.258Z,16.88
2023-05-05T02:42:04.253Z,16.88
2023-05-05T02:44:03.551Z,16.75
2023-05-05T02:45:04.271Z,17.06
2023-05-05T02:46:03.874Z,17.38
2023-05-05T02:48:04.187Z,17.25
2023-05-05T02:49:03.936Z,17.12
2023-05-05T02:51:04.176Z,17.12
2023-05-05T02:53:03.686Z,17.06
2023-05-05T02:54:03.719Z,17.19
2023-05-05T02:55:04.266Z,17.25
2023-05-05T02:56:04.009Z,17.44
2023-05-05T02:57:03.539Z,17.62
2023-05-05T02:58:03.614Z,17.50
2023-05-05T03:00:04.322Z,17.19
2023-05-05T03:01:04.213Z,17.19
2023-05-05T03:03:03.921Z,16.94
2023-05-05T03:04:03.546Z,16.81
2023-05-05T03:05:04.017Z,16.88
2023-05-05T03:06:03.689Z,16.94
2023-05-05T03:07:04.235Z,16.88
2023-05-05T03:08:03.867Z,16.94
2023-05-05T03:10:04.338Z,17.38
2023-05-05T03:11:03.855Z,17.50
2023-05-05T03:13:04.342Z,17.62
2023-05-05T03:14:04.520Z,17.50
2023-05-05T03:15:04.261Z,17.44
2023-05-05T03:16:03.893Z,17.25
2023-05-05T03:17:04.028Z,17.19
2023-05-05T03:18:03.750Z,17.12
2023-05-05T03:19:04.289Z,17.12
2023-05-05T03:20:04.122Z,17.06
2023-05-05T03:21:03.931Z,16.94
2023-05-05T03:23:03.915Z,16.88
2023-05-05T03:28:03.698Z,17.62
2023-05-05T03:29:04.411Z,17.62
2023-05-05T03:32:04.048Z,17.38
2023-05-05T03:33:03.934Z,17.19
2023-05-05T03:34:03.533Z,17.12
2023-05-05T03:35:04.187Z,17.25
2023-05-05T03:37:03.607Z,17.12
2023-05-05T03:38:04.489Z,17.25
2023-05-05T03:39:04.187Z,17.38
2023-05-05T03:40:03.774Z,17.31
2023-05-05T03:41:04.411Z,17.56
2023-05-05T03:44:04.091Z,18.56
2023-05-05T03:46:03.704Z,19.06
2023-05-05T03:48:04.514Z,19.12
2023-05-05T03:49:04.185Z,19.12
2023-05-05T03:50:03.694Z,18.62
2023-05-05T03:51:04.093Z,18.75
2023-05-05T03:53:04.188Z,18.44
2023-05-05T03:54:04.257Z,18.31
2023-05-05T03:56:03.943Z,18.44
2023-05-05T03:57:03.697Z,18.12
2023-05-05T03:58:04.246Z,17.88
2023-05-05T03:59:03.775Z,17.75
2023-05-05T04:00:03.851Z,17.62
2023-05-05T04:01:04.418Z,18.38
2023-05-05T04:02:04.117Z,18.69
2023-05-05T04:03:04.358Z,18.88
2023-05-05T04:04:04.093Z,18.88
2023-05-05T04:05:04.259Z,19.19
2023-05-05T04:06:03.853Z,19.25
2023-05-05T04:08:04.021Z,19.06
2023-05-05T04:09:03.776Z,18.94
2023-05-05T04:11:04.349Z,18.94
2023-05-05T04:12:04.104Z,18.81
2023-05-05T04:14:03.759Z,18.75
2023-05-05T04:15:03.685Z,18.88
2023-05-05T04:16:03.799Z,18.88
2023-05-05T04:17:03.616Z,18.88
2023-05-05T04:18:04.538Z,19.00
2023-05-05T04:19:03.699Z,19.00
2023-05-05T04:20:04.353Z,19.19
2023-05-05T04:21:04.096Z,19.38
2023-05-05T04:22:04.027Z,19.25
2023-05-05T04:23:03.930Z,19.19
2023-05-05T04:24:03.542Z,19.62
2023-05-05T04:25:04.249Z,19.50
2023-05-05T04:27:04.252Z,20.12
2023-05-05T04:28:04.254Z,19.88
2023-05-05T04:29:04.433Z,20.00
2023-05-05T04:31:03.620Z,20.88
2023-05-05T04:32:04.441Z,21.06
2023-05-05T04:33:04.050Z,21.75
2023-05-05T04:34:03.705Z,22.75
2023-05-05T04:35:04.338Z,22.88
2023-05-05T04:36:04.099Z,22.94
2023-05-05T04:37:04.177Z,22.56
2023-05-05T04:38:03.953Z,22.75
2023-05-05T04:39:03.654Z,22.62
2023-05-05T04:40:03.772Z,22.69
2023-05-05T04:41:04.432Z,22.88
2023-05-05T04:42:04.491Z,22.69
2023-05-05T04:44:03.636Z,22.69
2023-05-05T04:45:04.170Z,22.69
2023-05-05T04:46:04.101Z,22.69
2023-05-05T04:47:03.771Z,22.69
2023-05-05T04:48:04.052Z,22.44
2023-05-05T04:49:03.769Z,22.31
2023-05-05T04:51:03.573Z,21.88
2023-05-05T04:53:04.322Z,21.62
2023-05-05T04:54:04.444Z,21.69
2023-05-05T04:56:03.697Z,21.81
2023-05-05T04:57:04.342Z,21.88
2023-05-05T04:59:04.112Z,22.31
2023-05-05T05:00:04.029Z,22.81
2023-05-05T05:01:04.333Z,23.69
2023-05-05T05:02:04.620Z,23.88
2023-05-05T05:03:04.172Z,24.06
2023-05-05T05:04:04.542Z,24.44
2023-05-05T05:05:04.339Z,24.56
2023-05-05T05:06:04.029Z,25.31
2023-05-05T05:07:03.625Z,26.00
2023-05-05T05:09:04.329Z,26.81
2023-05-05T05:10:04.451Z,27.12
2023-05-05T05:11:04.115Z,27.44
2023-05-05T05:12:04.093Z,27.50
2023-05-05T05:14:03.633Z,28.38
2023-05-05T05:16:04.231Z,29.38
2023-05-05T05:18:03.664Z,30.00
2023-05-05T05:19:04.018Z,30.50
2023-05-05T05:20:04.145Z,30.69
2023-05-05T05:22:04.184Z,31.69
2023-05-05T05:23:03.928Z,31.94
2023-05-05T05:24:03.523Z,31.81
2023-05-05T05:25:03.526Z,31.38
2023-05-05T05:26:04.574Z,31.00
2023-05-05T05:27:04.096Z,31.12
2023-05-05T05:28:09.894Z,31.69
2023-05-05T05:29:03.686Z,32.19
2023-05-05T05:30:03.863Z,32.44
2023-05-05T05:32:04.554Z,32.50
2023-05-05T05:33:04.382Z,31.88
2023-05-05T05:34:04.412Z,31.06
2023-05-05T05:35:03.641Z,30.31
2023-05-05T05:36:04.338Z,30.06
2023-05-05T05:37:03.707Z,29.81
2023-05-05T05:38:03.769Z,29.81
2023-05-05T05:39:04.254Z,30.38
2023-05-05T05:41:04.254Z,32.31
2023-05-05T05:42:03.863Z,32.62
2023-05-05T05:43:03.691Z,33.00
2023-05-05T05:44:03.858Z,33.38
2023-05-05T05:46:04.026Z,33.56
2023-05-05T05:47:03.634Z,33.94
2023-05-05T05:49:04.090Z,33.94
2023-05-05T05:50:03.659Z,33.81
2023-05-05T05:51:04.273Z,34.25
2023-05-05T05:53:03.545Z,34.00
2023-05-05T05:54:04.176Z,34.50
2023-05-05T05:55:03.860Z,34.69
2023-05-05T05:57:04.104Z,34.81
2023-05-05T05:58:03.767Z,34.94
2023-05-05T05:59:04.546Z,34.81
2023-05-05T06:00:03.967Z,34.88
2023-05-05T06:01:03.930Z,34.94
2023-05-05T06:02:03.556Z,35.12
2023-05-05T06:03:04.347Z,35.06
2023-05-05T06:04:03.618Z,35.00
2023-05-05T06:05:04.111Z,35.25
2023-05-05T06:07:03.529Z,35.00
2023-05-05T06:08:03.708Z,35.06
2023-05-05T06:10:14.974Z,34.88
2023-05-05T06:11:03.713Z,34.44
2023-05-05T06:12:03.869Z,34.50
2023-05-05T06:14:03.607Z,34.50
2023-05-05T06:15:04.110Z,34.38
2023-05-05T06:16:03.785Z,34.44
2023-05-05T06:17:04.361Z,34.38
2023-05-05T06:18:04.050Z,34.19
2023-05-05T06:19:04.087Z,34.12
2023-05-05T06:20:03.774Z,34.00
2023-05-05T06:21:03.530Z,33.88
2023-05-05T06:22:04.202Z,33.62
2023-05-05T06:23:03.934Z,33.81
2023-05-05T06:24:03.603Z,33.88
2023-05-05T06:26:04.183Z,34.00
2023-05-05T06:28:04.013Z,34.44
2023-05-05T06:29:03.692Z,34.38
2023-05-05T06:30:03.794Z,34.38
2023-05-05T06:31:04.374Z,34.75
2023-05-05T06:32:03.861Z,34.56
2023-05-05T06:33:04.460Z,34.38
2023-05-05T06:34:03.609Z,34.38
2023-05-05T06:35:04.171Z,34.44
2023-05-05T06:36:04.022Z,34.44
2023-05-05T06:38:03.740Z,34.88
2023-05-05T06:39:04.249Z,34.75
2023-05-05T06:40:04.035Z,34.75
2023-05-05T06:41:04.108Z,34.69
2023-05-05T06:42:03.780Z,34.62
2023-05-05T06:43:04.428Z,34.56
2023-05-05T06:46:03.541Z,34.25
2023-05-05T06:47:03.684Z,34.19
2023-05-05T06:49:03.938Z,34.12
2023-05-05T06:50:03.761Z,33.94
2023-05-05T06:51:03.760Z,34.00
2023-05-05T06:52:03.629Z,34.12
2023-05-05T06:53:04.189Z,34.25
2023-05-05T06:55:03.951Z,34.50
2023-05-05T06:56:03.543Z,34.81
2023-05-05T06:57:03.542Z,34.50
2023-05-05T06:58:04.109Z,34.44
2023-05-05T07:00:03.864Z,34.44
2023-05-05T07:01:03.560Z,34.44
2023-05-05T07:02:04.126Z,34.38
2023-05-05T07:03:04.315Z,34.12
2023-05-05T07:04:04.165Z,34.19
2023-05-05T07:05:03.867Z,33.75
2023-05-05T07:06:04.418Z,33.88
2023-05-05T07:07:04.024Z,33.62
2023-05-05T07:08:03.826Z,33.69
2023-05-05T07:10:04.112Z,33.25
2023-05-05T07:12:03.638Z,32.75
2023-05-05T07:13:04.238Z,32.62
2023-05-05T07:15:12.376Z,32.44
2023-05-05T07:16:03.664Z,32.38
2023-05-05T07:17:04.343Z,32.31
2023-05-05T07:19:04.006Z,32.62
2023-05-05T07:20:03.825Z,32.81
2023-05-05T07:21:03.806Z,33.19
2023-05-05T07:23:04.444Z,34.50
2023-05-05T07:25:03.900Z,34.38
2023-05-05T07:26:03.928Z,34.50
2023-05-05T07:27:03.548Z,34.56
2023-05-05T07:28:03.703Z,34.19
2023-05-05T07:29:04.375Z,34.06
2023-05-05T07:30:06.613Z,33.62
2023-05-05T07:32:03.665Z,34.06
2023-05-05T07:33:04.361Z,34.38
2023-05-05T07:34:03.621Z,34.25
2023-05-05T07:35:03.476Z,34.56
2023-05-05T07:36:03.884Z,35.12
2023-05-05T07:37:03.898Z,35.44
2023-05-05T07:38:03.943Z,34.94
2023-05-05T07:41:03.543Z,35.12
2023-05-05T07:42:03.571Z,35.88
2023-05-05T07:43:04.340Z,33.06
2023-05-05T07:44:03.884Z,33.06
2023-05-05T07:46:03.828Z,33.19
2023-05-05T07:47:04.494Z,33.12
2023-05-05T07:49:04.267Z,33.19
2023-05-05T07:50:04.424Z,33.19
2023-05-05T07:51:03.954Z,33.31
2023-05-05T07:52:04.422Z,33.25
2023-05-05T07:53:13.478Z,33.62
2023-05-05T07:54:04.034Z,33.88
2023-05-05T07:55:04.476Z,33.81
2023-05-05T07:56:04.224Z,33.62
2023-05-05T07:57:03.868Z,33.31
2023-05-05T07:58:03.543Z,32.88
2023-05-05T08:00:04.026Z,32.88
2023-05-05T08:02:03.570Z,32.31
2023-05-05T08:03:04.293Z,32.44
2023-05-05T08:04:05.278Z,32.50
2023-05-05T08:05:04.252Z,32.69
2023-05-05T08:06:04.429Z,32.81
2023-05-05T08:07:04.114Z,32.75
2023-05-05T08:08:04.093Z,33.19
2023-05-05T08:10:03.866Z,33.25
2023-05-05T08:11:04.426Z,33.06
2023-05-05T08:12:04.110Z,33.25
2023-05-05T08:13:04.156Z,33.06
2023-05-05T08:14:04.259Z,33.25
2023-05-05T08:15:04.254Z,33.06
2023-05-05T08:17:04.202Z,32.88
2023-05-05T08:18:04.008Z,32.69
2023-05-05T08:19:05.057Z,32.88
2023-05-05T08:21:04.342Z,32.44
2023-05-05T08:22:04.117Z,32.62
2023-05-05T08:23:03.626Z,32.12
2023-05-05T08:24:03.684Z,32.00
2023-05-05T08:25:04.343Z,32.31
2023-05-05T08:26:04.116Z,33.19
2023-05-05T08:27:04.194Z,32.81
2023-05-05T08:29:04.250Z,32.75
2023-05-05T08:30:04.283Z,32.69
2023-05-05T08:31:04.455Z,32.69
2023-05-05T08:32:03.939Z,32.81
2023-05-05T08:33:04.537Z,32.50
2023-05-05T08:34:04.370Z,32.25
2023-05-05T08:35:03.793Z,32.12
2023-05-05T08:36:03.794Z,31.94
2023-05-05T08:38:04.432Z,31.81
2023-05-05T08:40:03.628Z,31.00
2023-05-05T08:41:04.251Z,31.12
2023-05-05T08:42:03.694Z,31.12
2023-05-05T08:43:04.264Z,31.00
2023-05-05T08:46:03.781Z,31.00
2023-05-05T08:47:03.884Z,30.88
2023-05-05T08:49:03.705Z,31.44
2023-05-05T08:50:04.580Z,31.31
2023-05-05T08:51:05.605Z,31.31
2023-05-05T08:53:04.309Z,31.12
2023-05-05T08:54:04.028Z,30.88
2023-05-05T08:56:03.789Z,30.44
2023-05-05T08:57:04.521Z,30.38
2023-05-05T08:59:04.207Z,29.69
2023-05-05T09:00:03.883Z,30.12
2023-05-05T09:01:04.437Z,30.88
2023-05-05T09:02:04.021Z,30.88
2023-05-05T09:03:04.469Z,31.06
2023-05-05T09:05:03.536Z,30.94
2023-05-05T09:06:04.168Z,30.75
2023-05-05T09:07:03.764Z,30.50
2023-05-05T09:08:03.949Z,30.88
2023-05-05T09:09:03.710Z,30.88
2023-05-05T09:10:04.245Z,30.75
2023-05-05T09:11:03.854Z,30.56
2023-05-05T09:12:04.005Z,30.50
2023-05-05T09:13:03.810Z,30.81
2023-05-05T09:14:03.564Z,30.88
2023-05-05T09:15:04.196Z,30.62
2023-05-05T09:17:04.477Z,31.06
2023-05-05T09:19:04.033Z,31.44
2023-05-05T09:20:03.692Z,31.94
2023-05-05T09:21:04.336Z,31.62
2023-05-05T09:23:03.700Z,31.69
2023-05-05T09:24:08.051Z,32.50
2023-05-05T09:25:03.995Z,31.56
2023-05-05T09:27:03.773Z,31.50
2023-05-05T09:28:04.258Z,31.38
2023-05-05T09:29:04.048Z,31.25
2023-05-05T09:30:04.011Z,31.12
2023-05-05T09:31:04.156Z,31.31
2023-05-05T09:32:03.770Z,30.94
2023-05-05T09:33:04.122Z,30.81
2023-05-05T09:34:04.268Z,30.62
2023-05-05T09:36:03.926Z,30.69
2023-05-05T09:37:04.189Z,30.62
2023-05-05T09:39:04.120Z,30.31
2023-05-05T09:40:03.845Z,30.25
2023-05-05T09:41:04.122Z,30.31
2023-05-05T09:42:04.266Z,30.44
2023-05-05T09:43:04.040Z,30.50
2023-05-05T09:45:04.255Z,30.62
2023-05-05T09:46:03.775Z,30.56
2023-05-05T09:47:07.302Z,30.81
2023-05-05T09:49:04.501Z,31.69
2023-05-05T09:50:04.062Z,31.62
2023-05-05T09:51:03.607Z,31.88
2023-05-05T09:52:04.499Z,31.81
2023-05-05T09:53:04.507Z,31.81
2023-05-05T09:55:04.506Z,31.19
2023-05-05T09:56:04.257Z,31.31
2023-05-05T09:57:03.855Z,31.12
2023-05-05T09:58:03.553Z,30.88
2023-05-05T09:59:04.504Z,30.75
2023-05-05T10:01:03.841Z,31.00
2023-05-05T10:02:03.657Z,31.06
2023-05-05T10:03:04.286Z,31.25
2023-05-05T10:04:03.935Z,31.31
2023-05-05T10:05:04.086Z,31.44
2023-05-05T10:06:04.342Z,32.06
2023-05-05T10:07:04.097Z,31.50
2023-05-05T10:08:03.935Z,31.38
2023-05-05T10:09:03.936Z,31.44
2023-05-05T10:10:03.536Z,31.69
2023-05-05T10:11:04.336Z,31.81
2023-05-05T10:12:03.627Z,31.81
2023-05-05T10:13:04.169Z,31.56
2023-05-05T10:14:04.337Z,32.00
2023-05-05T10:16:04.112Z,31.94
2023-05-05T10:17:04.489Z,31.62
2023-05-05T10:19:04.226Z,31.38
2023-05-05T10:21:04.181Z,31.06
2023-05-05T10:22:03.868Z,31.12
2023-05-05T10:23:04.495Z,31.00
2023-05-05T10:25:04.251Z,31.06
2023-05-05T10:26:04.029Z,31.50
2023-05-05T10:27:03.776Z,31.94
2023-05-05T10:28:03.770Z,32.06
2023-05-05T10:30:03.601Z,31.62
2023-05-05T10:31:13.059Z,32.12
2023-05-05T10:32:16.479Z,32.06
2023-05-05T10:33:18.472Z,32.12
2023-05-05T10:35:04.093Z,32.31
2023-05-05T10:36:03.852Z,32.06
2023-05-05T10:38:03.764Z,32.31
2023-05-05T10:39:04.407Z,32.38
2023-05-05T10:40:04.347Z,31.88
2023-05-05T10:43:04.327Z,31.69
2023-05-05T10:44:04.792Z,31.56
2023-05-05T10:45:03.750Z,31.56
2023-05-05T10:46:04.347Z,31.31
2023-05-05T10:47:04.156Z,31.75
2023-05-05T10:48:03.840Z,31.62
2023-05-05T10:49:03.624Z,31.62
2023-05-05T10:50:04.241Z,31.62
2023-05-05T10:52:03.640Z,31.00
2023-05-05T10:53:03.810Z,30.88
2023-05-05T10:54:03.926Z,30.81
2023-05-05T10:55:03.455Z,30.88
2023-05-05T10:56:04.011Z,30.81
2023-05-05T10:57:04.098Z,30.56
2023-05-05T10:59:04.136Z,30.56
2023-05-05T11:00:04.292Z,31.06
2023-05-05T11:01:04.210Z,30.75
2023-05-05T11:02:04.092Z,30.88
2023-05-05T11:04:04.008Z,31.06
2023-05-05T11:06:03.872Z,31.06
2023-05-05T11:08:03.612Z,31.06
2023-05-05T11:09:03.611Z,30.56
2023-05-05T11:10:03.648Z,30.19
2023-05-05T11:11:04.169Z,30.38
2023-05-05T11:12:03.776Z,30.25
2023-05-05T11:13:03.885Z,30.25
2023-05-05T11:14:04.106Z,30.50
2023-05-05T11:16:03.778Z,30.38
2023-05-05T11:17:03.609Z,30.38
2023-05-05T11:18:07.281Z,30.62
2023-05-05T11:20:03.879Z,30.44
2023-05-05T11:21:03.527Z,30.31
2023-05-05T11:22:03.624Z,30.19
2023-05-05T11:23:04.789Z,30.50
2023-05-05T11:24:03.523Z,30.75
2023-05-05T11:26:04.293Z,30.75
2023-05-05T11:28:03.860Z,31.12
2023-05-05T11:29:03.978Z,30.94
2023-05-05T11:31:04.374Z,31.00
2023-05-05T11:32:04.085Z,30.75
2023-05-05T11:33:03.818Z,31.00
2023-05-05T11:34:04.413Z,30.94
2023-05-05T11:35:03.952Z,30.81
2023-05-05T11:36:06.325Z,30.69
2023-05-05T11:38:03.693Z,30.81
2023-05-05T11:39:04.432Z,30.81
2023-05-05T11:40:03.937Z,30.69
2023-05-05T11:42:08.244Z,30.88
2023-05-05T11:44:04.586Z,30.69
2023-05-05T11:45:04.095Z,30.69
2023-05-05T11:46:04.186Z,31.06
2023-05-05T11:47:04.394Z,31.25
2023-05-05T11:48:04.452Z,31.44
2023-05-05T11:49:03.692Z,31.44
2023-05-05T11:50:04.178Z,31.44
2023-05-05T11:51:03.928Z,31.25
2023-05-05T11:52:03.532Z,31.38
2023-05-05T11:53:04.096Z,31.31
2023-05-05T11:54:04.176Z,31.62
2023-05-05T11:55:04.039Z,31.50
2023-05-05T11:56:04.009Z,31.50
2023-05-05T11:57:03.614Z,31.56
2023-05-05T11:58:03.713Z,31.12
2023-05-05T11:59:03.783Z,30.75
2023-05-05T12:00:04.335Z,30.62
2023-05-05T12:01:04.032Z,30.81
2023-05-05T12:03:04.382Z,31.50
2023-05-05T12:04:04.406Z,31.12
2023-05-05T12:05:04.428Z,31.06
2023-05-05T12:06:04.417Z,30.94
2023-05-05T12:08:04.419Z,30.94
2023-05-05T12:10:03.628Z,30.69
2023-05-05T12:11:04.336Z,30.62
2023-05-05T12:12:03.853Z,30.88
2023-05-05T12:13:03.563Z,30.81
2023-05-05T12:14:04.588Z,30.88
2023-05-05T12:15:04.025Z,30.62
2023-05-05T12:16:04.094Z,30.50
2023-05-05T12:17:04.318Z,30.50
2023-05-05T12:18:03.735Z,30.38
2023-05-05T12:19:03.540Z,30.56
2023-05-05T12:20:03.727Z,30.75
2023-05-05T12:21:04.185Z,30.88
2023-05-05T12:23:03.782Z,30.69
2023-05-05T12:24:04.351Z,30.69
2023-05-05T12:25:03.770Z,30.62
2023-05-05T12:26:03.858Z,30.81
2023-05-05T12:27:03.929Z,30.81
2023-05-05T12:28:03.937Z,30.81
2023-05-05T12:29:04.484Z,30.56
2023-05-05T12:30:03.601Z,30.56
2023-05-05T12:31:04.195Z,30.56
2023-05-05T12:32:04.402Z,31.06
2023-05-05T12:33:04.214Z,30.94
2023-05-05T12:34:04.179Z,31.06
2023-05-05T12:35:04.348Z,30.94
2023-05-05T12:37:03.945Z,30.88
2023-05-05T12:38:03.950Z,30.75
2023-05-05T12:39:03.552Z,31.00
2023-05-05T12:40:03.613Z,31.12
2023-05-05T12:41:03.626Z,31.06
2023-05-05T12:43:04.505Z,31.00
2023-05-05T12:44:03.541Z,31.00
2023-05-05T12:45:04.131Z,30.94
2023-05-05T12:46:03.744Z,31.06
2023-05-05T12:47:03.543Z,31.50
2023-05-05T12:48:04.207Z,31.50
2023-05-05T12:49:03.932Z,31.19
2023-05-05T12:50:03.462Z,31.12
2023-05-05T12:51:03.777Z,30.50
2023-05-05T12:52:04.425Z,30.31
2023-05-05T12:53:03.933Z,30.12
2023-05-05T12:55:04.177Z,30.38
2023-05-05T12:56:03.541Z,30.50
2023-05-05T12:57:03.569Z,30.50
2023-05-05T12:59:04.268Z,30.44
2023-05-05T13:01:03.960Z,30.94
2023-05-05T13:02:04.228Z,31.06
2023-05-05T13:03:04.199Z,31.56
2023-05-05T13:04:03.636Z,32.31
2023-05-05T13:05:03.874Z,32.44
2023-05-05T13:07:03.694Z,32.00
2023-05-05T13:08:03.786Z,31.69
2023-05-05T13:10:04.430Z,31.69
2023-05-05T13:12:04.194Z,31.62
2023-05-05T13:13:03.955Z,31.62
2023-05-05T13:15:03.620Z,31.81
2023-05-05T13:16:04.309Z,31.81
2023-05-05T13:18:04.223Z,31.69
2023-05-05T13:20:04.176Z,32.06
2023-05-05T13:21:03.801Z,32.00
2023-05-05T13:22:04.268Z,31.69
2023-05-05T13:23:04.320Z,31.75
2023-05-05T13:26:04.337Z,32.19
2023-05-05T13:28:04.422Z,32.19
2023-05-05T13:30:04.148Z,32.06
2023-05-05T13:31:03.924Z,31.88
2023-05-05T13:32:04.414Z,31.50
2023-05-05T13:33:04.220Z,31.38
2023-05-05T13:35:03.652Z,31.38
2023-05-05T13:36:04.089Z,31.50
2023-05-05T13:37:03.953Z,31.69
2023-05-05T13:38:04.107Z,31.62
2023-05-05T13:39:03.787Z,31.69
2023-05-05T13:41:03.540Z,31.31
2023-05-05T13:42:04.334Z,31.06
2023-05-05T13:43:03.878Z,31.00
2023-05-05T13:45:03.778Z,30.81
2023-05-05T13:46:16.488Z,30.56
2023-05-05T13:48:04.526Z,30.19
2023-05-05T13:49:03.778Z,30.25
2023-05-05T13:50:04.515Z,30.88
2023-05-05T13:52:03.703Z,30.88
2023-05-05T13:53:04.364Z,31.06
2023-05-05T13:54:04.017Z,31.44
2023-05-05T13:55:04.086Z,31.50
2023-05-05T13:57:03.946Z,31.69
2023-05-05T13:58:04.520Z,31.50
2023-05-05T13:59:04.019Z,31.50
2023-05-05T14:00:03.630Z,31.31
2023-05-05T14:01:04.253Z,31.25
2023-05-05T14:02:03.616Z,31.38
2023-05-05T14:04:05.578Z,31.25
2023-05-05T14:06:03.530Z,31.25
2023-05-05T14:07:04.256Z,31.25
2023-05-05T14:08:03.937Z,31.31
2023-05-05T14:10:03.566Z,31.25
2023-05-05T14:11:04.190Z,31.56
2023-05-05T14:12:03.692Z,31.50
2023-05-05T14:13:03.921Z,31.50
2023-05-05T14:14:04.021Z,31.69
2023-05-05T14:15:04.071Z,31.62
2023-05-05T14:16:04.082Z,31.12
2023-05-05T14:17:04.278Z,31.38
2023-05-05T14:18:04.295Z,31.44
2023-05-05T14:20:03.783Z,31.62
2023-05-05T14:21:03.924Z,31.88
2023-05-05T14:23:04.340Z,31.81
2023-05-05T14:24:03.560Z,31.94
2023-05-05T14:25:03.697Z,32.00
2023-05-05T14:26:04.521Z,32.00
2023-05-05T14:27:03.947Z,31.81
2023-05-05T14:28:03.711Z,31.75
2023-05-05T14:29:04.351Z,32.00
2023-05-05T14:31:03.550Z,31.62
2023-05-05T14:33:04.444Z,31.19
2023-05-05T14:34:04.257Z,31.06
2023-05-05T14:35:04.337Z,30.88
2023-05-05T14:37:04.408Z,30.62
2023-05-05T14:38:03.872Z,30.88
2023-05-05T14:40:05.702Z,31.25
2023-05-05T14:42:04.498Z,31.31
2023-05-05T14:43:03.704Z,31.50
2023-05-05T14:44:03.785Z,31.75
2023-05-05T14:45:03.726Z,31.81
2023-05-05T14:46:04.456Z,31.75
2023-05-05T14:47:04.026Z,31.88
2023-05-05T14:48:03.700Z,31.69
2023-05-05T14:49:04.429Z,31.56
2023-05-05T14:50:03.694Z,31.50
2023-05-05T14:52:04.356Z,31.56
2023-05-05T14:53:03.865Z,31.62
2023-05-05T14:54:07.393Z,31.56
2023-05-05T14:55:04.496Z,31.81
2023-05-05T14:57:03.845Z,31.56
2023-05-05T14:58:04.583Z,31.50
2023-05-05T15:00:04.116Z,31.69
2023-05-05T15:03:04.357Z,31.62
2023-05-05T15:04:03.713Z,31.62
2023-05-05T15:05:04.046Z,31.81
2023-05-05T15:07:03.471Z,32.31
2023-05-05T15:09:04.168Z,32.06
2023-05-05T15:10:04.467Z,32.19
2023-05-05T15:11:04.176Z,32.00
2023-05-05T15:12:04.189Z,31.69
2023-05-05T15:13:04.273Z,31.56
2023-05-05T15:15:03.935Z,31.44
2023-05-05T15:16:04.295Z,31.62
2023-05-05T15:17:04.015Z,32.25
2023-05-05T15:18:04.209Z,32.38
2023-05-05T15:19:04.029Z,32.69
2023-05-05T15:20:03.898Z,32.56
2023-05-05T15:21:03.931Z,32.25
2023-05-05T15:22:03.930Z,31.94
2023-05-05T15:24:04.097Z,31.88
2023-05-05T15:25:04.190Z,32.12
2023-05-05T15:26:03.999Z,32.38
2023-05-05T15:28:03.695Z,32.12
2023-05-05T15:29:04.427Z,32.06
2023-05-05T15:31:03.652Z,31.75
2023-05-05T15:32:04.276Z,32.38
2023-05-05T15:33:03.857Z,32.62
2023-05-05T15:34:03.628Z,32.69
2023-05-05T15:35:04.178Z,32.62
2023-05-05T15:36:03.868Z,32.69
2023-05-05T15:38:04.685Z,32.25
2023-05-05T15:40:03.710Z,32.44
2023-05-05T15:41:04.567Z,32.50
2023-05-05T15:42:04.701Z,32.38
2023-05-05T15:43:04.107Z,32.25
2023-05-05T15:44:03.601Z,32.06
2023-05-05T15:45:04.283Z,31.81
2023-05-05T15:46:04.186Z,31.81
2023-05-05T15:47:04.344Z,31.81
2023-05-05T15:48:03.964Z,31.75
2023-05-05T15:49:03.773Z,31.69
2023-05-05T15:50:04.465Z,31.69
2023-05-05T15:51:04.254Z,31.69
2023-05-05T15:52:04.259Z,31.88
2023-05-05T15:53:03.930Z,32.06
2023-05-05T15:54:03.794Z,32.38
2023-05-05T15:56:04.527Z,32.44
2023-05-05T15:57:03.945Z,32.50
2023-05-05T15:58:03.947Z,32.62
2023-05-05T16:00:03.647Z,32.38
2023-05-05T16:01:03.554Z,32.19
2023-05-05T16:02:04.361Z,32.12
2023-05-05T16:03:04.308Z,32.19